Time;durP1;ratioP1;P1;durP2;ratioP2;P2;SDS_P1;SDS_P2;PMS_P1;PMS_P2;Temp;Humidity;BMP_temperature;BMP_pressure;BME280_temperature;BME280_humidity;BME280_pressure;Samples;Min_cycle;Max_cycle;Signal;HPM_P1;HPM_P2
2022/02/14 00:03:44;;;;;;;11.57;7.90;;;;;;;-1.47;100.00;100589.59;15346809;19;20260;-51
2022/02/14 00:13:45;;;;;;;11.17;6.90;;;;;;;-1.44;100.00;100580.81;15336528;19;20500;-51
2022/02/14 00:18:50;;;;;;;10.43;7.13;;;;;;;-1.43;100.00;100585.19;15316770;19;20151;-52
2022/02/14 00:28:51;;;;;;;12.07;6.63;;;;;;;-1.52;100.00;100582.66;15340844;19;20501;-51
2022/02/14 00:33:56;;;;;;;10.40;6.80;;;;;;;-1.56;100.00;100583.56;15345750;19;20155;-51
2022/02/14 00:39:00;;;;;;;10.97;6.50;;;;;;;-1.53;100.00;100578.31;15322727;19;20140;-52
2022/02/14 00:44:05;;;;;;;8.47;6.10;;;;;;;-1.54;100.00;100579.19;15324384;19;20152;-52
2022/02/14 00:49:11;;;;;;;11.07;7.13;;;;;;;-1.51;100.00;100574.81;15342932;19;20152;-53
2022/02/14 00:54:16;;;;;;;10.10;6.83;;;;;;;-1.62;100.00;100549.66;15338307;19;20272;-52
2022/02/14 00:59:21;;;;;;;14.33;7.17;;;;;;;-1.50;100.00;100555.59;15331076;19;20159;-51
2022/02/14 01:04:26;;;;;;;10.37;7.03;;;;;;;-1.45;100.00;100553.78;15311877;19;20244;-52
2022/02/14 01:09:30;;;;;;;11.13;6.70;;;;;;;-1.37;100.00;100550.22;15338910;19;20160;-52
2022/02/14 01:14:35;;;;;;;9.80;6.87;;;;;;;-1.29;100.00;100551.00;15338522;19;20423;-51
2022/02/14 01:19:40;;;;;;;9.67;6.93;;;;;;;-1.28;100.00;100550.09;15335699;19;20180;-51
2022/02/14 01:24:45;;;;;;;11.93;7.90;;;;;;;-1.26;100.00;100549.22;15305706;19;20276;-51
2022/02/14 01:29:49;;;;;;;12.60;7.87;;;;;;;-1.17;100.00;100543.84;15323370;19;20189;-52
2022/02/14 01:34:55;;;;;;;9.27;6.63;;;;;;;-1.10;100.00;100542.91;15334440;19;20191;-51
2022/02/14 01:59:51;;;;;;;10.53;7.40;;;;;;;-1.16;100.00;100519.41;15341169;19;20484;-51
2022/02/14 02:09:53;;;;;;;12.07;7.10;;;;;;;-1.08;100.00;100512.28;15309324;19;20528;-51
2022/02/14 02:14:59;;;;;;;10.43;6.80;;;;;;;-1.10;100.00;100514.09;15336004;19;20693;-51
2022/02/14 02:29:59;;;;;;;15.67;8.83;;;;;;;-1.05;100.00;100502.66;15177110;19;2878674;-51
2022/02/14 02:35:03;;;;;;;11.53;7.70;;;;;;;-0.98;100.00;100501.72;15322908;19;20152;-51
2022/02/14 02:45:05;;;;;;;10.37;7.30;;;;;;;-0.99;100.00;100499.97;15341318;19;20471;-51
2022/02/14 02:50:10;;;;;;;13.73;7.63;;;;;;;-1.15;100.00;100497.56;15346784;19;20253;-51
2022/02/14 03:00:13;;;;;;;11.27;7.23;;;;;;;-1.28;100.00;100492.50;15333478;19;20506;-52
2022/02/14 03:05:17;;;;;;;11.93;7.93;;;;;;;-1.42;100.00;100499.69;15332390;19;20862;-51
2022/02/14 03:15:17;;;;;;;14.70;7.80;;;;;;;-1.63;100.00;100485.13;15197505;19;2996598;-51
2022/02/14 03:20:22;;;;;;;12.87;7.53;;;;;;;-1.65;100.00;100487.75;15366332;19;20166;-51
2022/02/14 03:25:28;;;;;;;13.70;8.03;;;;;;;-1.68;100.00;100498.25;15347972;19;20156;-52
2022/02/14 03:30:32;;;;;;;10.40;7.40;;;;;;;-1.72;100.00;100486.09;15317943;19;20266;-52
2022/02/14 03:40:35;;;;;;;12.80;7.43;;;;;;;-1.79;100.00;100488.78;15340396;19;20467;-52
2022/02/14 03:55:34;;;;;;;11.80;7.43;;;;;;;-1.92;100.00;100478.47;15306260;19;20462;-52
2022/02/14 04:00:39;;;;;;;13.80;8.20;;;;;;;-1.96;100.00;100471.56;15337131;19;21005;-52
2022/02/14 04:05:47;;;;;;;13.93;8.10;;;;;;;-2.05;100.00;100466.41;15345959;19;20176;-52
2022/02/14 04:15:49;;;;;;;14.90;9.33;;;;;;;-2.15;100.00;100459.53;15310636;19;20904;-51
2022/02/14 04:20:54;;;;;;;17.00;9.03;;;;;;;-2.27;100.00;100465.75;15326281;19;20527;-52
2022/02/14 04:30:55;;;;;;;14.47;9.00;;;;;;;-2.45;100.00;100454.63;15340255;19;20513;-52
2022/02/14 04:36:00;;;;;;;14.23;9.00;;;;;;;-2.51;100.00;100455.53;15332316;19;20655;-52
2022/02/14 04:46:01;;;;;;;18.80;9.60;;;;;;;-2.59;100.00;100453.00;15337054;19;20501;-52
2022/02/14 04:51:06;;;;;;;16.90;9.80;;;;;;;-1.55;100.00;100452.72;15346466;19;20156;-52
2022/02/14 04:56:10;;;;;;;14.53;9.80;;;;;;;-1.35;100.00;100444.63;15346893;19;20148;-51
2022/02/14 05:01:15;;;;;;;15.00;9.33;;;;;;;-1.62;100.00;100445.00;15309527;19;20199;-52
2022/02/14 05:11:17;;;;;;;15.30;9.47;;;;;;;-1.92;100.00;100447.09;15338612;19;20506;-51
2022/02/14 05:16:23;;;;;;;15.53;10.60;;;;;;;-2.00;100.00;100448.94;15345364;19;20222;-52
2022/02/14 05:26:25;;;;;;;19.53;10.90;;;;;;;-2.10;100.00;100463.00;15303824;19;20498;-52
2022/02/14 05:31:29;;;;;;;17.20;11.27;;;;;;;-2.17;100.00;100451.72;15343415;19;20171;-52
2022/02/14 05:36:34;;;;;;;20.70;10.83;;;;;;;-2.23;100.00;100466.59;15340119;19;20188;-52
2022/02/14 05:41:38;;;;;;;19.33;11.00;;;;;;;-2.33;100.00;100462.34;15340814;19;20402;-53
2022/02/14 05:51:40;;;;;;;20.43;12.00;;;;;;;-2.45;100.00;100460.72;15324363;19;20498;-52
2022/02/14 05:56:45;;;;;;;20.33;11.70;;;;;;;-2.43;100.00;100455.50;15346852;19;20148;-52
2022/02/14 06:01:50;;;;;;;18.00;11.30;;;;;;;-2.38;100.00;100471.97;15344376;19;20640;-52
2022/02/14 06:06:56;;;;;;;18.50;11.87;;;;;;;-2.34;100.00;100463.25;15323413;19;20137;-52
2022/02/14 06:12:00;;;;;;;20.70;12.50;;;;;;;-2.24;100.00;100467.50;15318771;19;20163;-52
2022/02/14 06:17:05;;;;;;;19.60;11.27;;;;;;;-2.17;100.00;100470.94;15341205;19;20173;-52
2022/02/14 06:22:09;;;;;;;22.60;12.70;;;;;;;-2.13;100.00;100465.63;15341635;19;20578;-52
2022/02/14 06:27:14;;;;;;;22.63;13.30;;;;;;;-2.04;100.00;100468.13;15337240;19;20437;-52
2022/02/14 06:32:18;;;;;;;20.50;12.40;;;;;;;-1.90;100.00;100461.00;15310848;19;20246;-51
2022/02/14 06:37:23;;;;;;;24.97;12.30;;;;;;;-1.78;100.00;100461.75;15333209;19;20152;-52
2022/02/14 06:52:20;;;;;;;51.10;23.03;;;;;;;-1.26;100.00;100449.72;15310758;19;20530;-50
2022/02/14 06:57:26;;;;;;;53.07;23.07;;;;;;;-1.04;100.00;100446.78;15322273;19;20171;-51
2022/02/14 07:02:30;;;;;;;42.93;20.30;;;;;;;-0.81;100.00;100440.31;15342614;19;20161;-52
2022/02/14 07:17:36;;;;;;;35.50;16.00;;;;;;;-0.08;100.00;100440.78;15310094;19;20527;-51
2022/02/14 07:37:35;;;;;;;16.13;9.47;;;;;;;0.59;100.00;100445.53;15313837;19;20460;-51
2022/02/14 07:42:40;;;;;;;18.00;10.50;;;;;;;0.79;100.00;100445.09;15328893;19;20259;-51
2022/02/14 07:47:44;;;;;;;14.93;10.03;;;;;;;1.00;100.00;100441.09;15346314;19;20534;-52
2022/02/14 07:52:49;;;;;;;17.63;10.90;;;;;;;1.24;100.00;100440.50;15345551;19;20149;-51
2022/02/14 07:57:54;;;;;;;15.87;10.57;;;;;;;1.48;100.00;100433.78;15332839;19;20168;-51
2022/02/14 08:02:58;;;;;;;17.20;10.20;;;;;;;1.77;100.00;100439.16;15315364;19;20169;-51
2022/02/14 08:08:03;;;;;;;19.07;11.17;;;;;;;2.06;100.00;100437.47;15342859;19;20159;-51
2022/02/14 08:13:29;;;;;;;12.93;8.53;;;;;;;2.28;100.00;100429.88;15343490;19;21446;-51
2022/02/14 08:18:33;;;;;;;15.43;9.37;;;;;;;2.44;100.00;100434.63;15345207;19;20149;-51
2022/02/14 08:23:38;;;;;;;14.70;9.60;;;;;;;2.59;100.00;100432.47;15310890;19;20146;-51
2022/02/14 08:28:42;;;;;;;16.00;10.47;;;;;;;2.75;100.00;100433.75;15331912;19;20204;-51
2022/02/14 08:33:47;;;;;;;17.23;9.70;;;;;;;2.94;100.00;100424.34;15341387;19;20173;-51
2022/02/14 08:38:52;;;;;;;14.70;9.63;;;;;;;3.21;100.00;100431.38;15343994;19;20153;-51
2022/02/14 08:43:57;;;;;;;15.57;10.30;;;;;;;3.52;100.00;100423.28;15322088;19;20381;-51
2022/02/14 08:49:01;;;;;;;16.13;9.70;;;;;;;3.83;100.00;100417.84;15256818;19;20938;-50
2022/02/14 08:54:06;;;;;;;15.80;9.80;;;;;;;4.02;100.00;100401.34;15282519;19;20239;-51
2022/02/14 08:59:13;;;;;;;14.47;9.63;;;;;;;4.37;100.00;100408.81;15283226;19;20149;-51
2022/02/14 09:04:18;;;;;;;12.57;9.27;;;;;;;4.69;100.00;100426.97;15277826;19;20154;-51
2022/02/14 09:09:23;;;;;;;15.33;9.17;;;;;;;4.99;100.00;100426.69;15249052;19;20149;-51
2022/02/14 09:14:27;;;;;;;11.10;8.27;;;;;;;5.27;100.00;100423.81;15273155;19;20162;-51
2022/02/14 09:19:32;;;;;;;9.93;8.57;;;;;;;5.48;100.00;100416.75;15281825;19;20148;-51
2022/02/14 09:24:37;;;;;;;9.60;7.57;;;;;;;5.69;100.00;100408.75;15281812;19;20148;-52
2022/02/14 09:29:41;;;;;;;8.53;7.23;;;;;;;5.92;100.00;100407.78;15253161;19;20149;-51
2022/02/14 09:34:47;;;;;;;9.83;7.70;;;;;;;6.08;100.00;100392.94;15256962;19;20606;-51
2022/02/14 09:39:52;;;;;;;9.60;7.83;;;;;;;6.26;100.00;100391.28;15279246;19;21173;-52
2022/02/14 09:44:57;;;;;;;10.27;8.03;;;;;;;6.43;100.00;100398.44;15280216;19;20145;-51
2022/02/14 09:50:02;;;;;;;8.33;7.33;;;;;;;6.57;100.00;100379.25;15266468;19;20166;-51
2022/02/14 09:55:06;;;;;;;11.17;8.60;;;;;;;6.71;100.00;100380.31;15243445;19;20158;-50
2022/02/14 10:00:15;;;;;;;9.50;7.93;;;;;;;6.88;100.00;100389.28;15272395;19;20525;-52
2022/02/14 10:05:21;;;;;;;9.10;7.93;;;;;;;7.08;100.00;100375.91;15277419;19;20157;-51
2022/02/14 10:10:28;;;;;;;9.80;7.73;;;;;;;7.27;100.00;100363.44;15277331;19;20145;-51
2022/02/14 10:15:34;;;;;;;10.87;8.40;;;;;;;7.31;100.00;100365.00;15243417;19;20150;-52
2022/02/14 10:20:39;;;;;;;9.33;8.33;;;;;;;7.36;100.00;100362.13;15262247;19;20150;-52
2022/02/14 10:25:47;;;;;;;10.40;8.67;;;;;;;7.43;100.00;100360.88;15277372;19;20138;-51
2022/02/14 10:31:08;;;;;;;12.87;9.17;;;;;;;7.50;100.00;100355.16;15277137;19;20157;-53
2022/02/14 10:36:13;;;;;;;9.60;8.60;;;;;;;7.56;100.00;100352.22;15251307;19;20175;-51
2022/02/14 10:41:19;;;;;;;10.57;8.83;;;;;;;7.55;100.00;100350.50;15250652;19;20147;-51
2022/02/14 10:46:25;;;;;;;10.07;8.93;;;;;;;7.62;100.00;100339.53;15275340;19;20674;-51
2022/02/14 10:51:29;;;;;;;12.13;9.23;;;;;;;7.69;100.00;100347.13;15275059;19;20591;-51
2022/02/14 10:56:42;;;;;;;9.73;8.43;;;;;;;7.80;100.00;100338.59;15266196;19;20485;-51
2022/02/14 11:01:47;;;;;;;9.53;8.60;;;;;;;7.93;100.00;100334.34;15244416;19;20142;-53
2022/02/14 11:06:52;;;;;;;11.20;8.80;;;;;;;7.97;100.00;100333.22;15266167;19;20195;-51
2022/02/14 11:11:57;;;;;;;13.53;9.73;;;;;;;8.02;100.00;100317.91;15272148;19;20513;-52
2022/02/14 11:17:03;;;;;;;10.43;8.43;;;;;;;8.06;100.00;100314.16;15268935;19;20163;-52
2022/02/14 11:22:07;;;;;;;9.90;8.60;;;;;;;8.09;100.00;100316.63;15245177;19;20286;-51
2022/02/14 11:27:18;;;;;;;10.10;8.60;;;;;;;8.19;100.00;100314.34;15254504;19;20150;-51
2022/02/14 11:32:39;;;;;;;10.37;8.47;;;;;;;8.28;100.00;100313.84;15272024;19;20585;-51
2022/02/14 11:38:00;;;;;;;10.83;8.73;;;;;;;8.29;100.00;100307.59;15268594;19;20137;-51
2022/02/14 11:43:22;;;;;;;10.60;8.93;;;;;;;8.39;100.00;100310.63;15254496;19;20144;-51
2022/02/14 11:48:29;;;;;;;9.07;8.10;;;;;;;8.41;100.00;100296.31;15246944;19;20228;-51
2022/02/14 11:53:36;;;;;;;9.37;8.40;;;;;;;8.48;100.00;100295.00;15271761;19;20220;-51
2022/02/14 11:59:07;;;;;;;9.57;8.53;;;;;;;8.48;100.00;100299.47;15271614;19;20610;-51
2022/02/14 12:04:36;;;;;;;8.77;7.87;;;;;;;8.52;100.00;100285.06;15265259;19;20144;-51
2022/02/14 12:09:58;;;;;;;11.40;8.70;;;;;;;8.60;100.00;100282.81;15241417;19;20144;-52
2022/02/14 12:20:54;;;;;;;9.67;8.30;;;;;;;8.74;100.00;100263.41;15272444;19;20149;-51
2022/02/14 12:25:59;;;;;;;11.30;8.70;;;;;;;8.85;100.00;100258.31;15284353;19;20151;-51
2022/02/14 12:31:04;;;;;;;9.20;8.30;;;;;;;8.93;100.00;100243.66;15251031;19;20149;-51
2022/02/14 12:36:13;;;;;;;10.57;7.97;;;;;;;8.99;100.00;100232.63;15268970;19;20560;-52
2022/02/14 12:41:19;;;;;;;9.67;8.23;;;;;;;9.03;100.00;100234.16;15284077;19;20159;-53
2022/02/14 12:46:30;;;;;;;8.57;7.43;;;;;;;9.13;100.00;100223.81;15284454;19;20277;-51
2022/02/14 12:51:35;;;;;;;8.83;7.60;;;;;;;9.19;100.00;100223.44;15259334;19;20173;-52
2022/02/14 12:56:41;;;;;;;9.50;8.10;;;;;;;9.27;100.00;100215.00;15259859;19;20156;-51
2022/02/14 13:01:48;;;;;;;8.63;7.53;;;;;;;9.35;100.00;100212.72;15282507;19;20141;-52
2022/02/14 13:06:56;;;;;;;9.77;7.93;;;;;;;9.44;100.00;100198.84;15283588;19;20188;-52
2022/02/14 13:12:01;;;;;;;8.60;7.53;;;;;;;9.51;100.00;100192.19;15274044;19;20728;-51
2022/02/14 13:17:08;;;;;;;9.10;7.77;;;;;;;9.52;100.00;100183.25;15249542;19;20660;-51
2022/02/14 13:22:13;;;;;;;10.27;8.80;;;;;;;9.51;100.00;100173.56;15276606;19;20482;-51
2022/02/14 13:27:17;;;;;;;11.33;8.97;;;;;;;9.49;100.00;100172.78;15279588;19;20170;-51
2022/02/14 13:32:23;;;;;;;11.27;8.77;;;;;;;9.47;100.00;100168.50;15281473;19;20236;-51
2022/02/14 13:37:29;;;;;;;11.50;9.40;;;;;;;9.47;100.00;100161.38;15246507;19;20173;-51
2022/02/14 13:42:34;;;;;;;12.20;9.90;;;;;;;9.45;100.00;100160.59;15264860;19;20599;-51
2022/02/14 13:47:38;;;;;;;10.60;9.10;;;;;;;9.39;100.00;100161.84;15278800;19;20149;-51
2022/02/14 13:52:42;;;;;;;13.57;9.63;;;;;;;9.31;100.00;100163.25;15277576;19;20161;-51
2022/02/14 13:57:49;;;;;;;10.70;9.40;;;;;;;9.26;100.00;100149.38;15260606;19;20164;-52
2022/02/14 14:03:01;;;;;;;14.33;10.37;;;;;;;9.19;100.00;100153.38;15251393;19;20153;-51
2022/02/14 14:08:07;;;;;;;12.47;9.27;;;;;;;9.17;100.00;100141.97;15278563;19;20166;-51
2022/02/14 14:13:13;;;;;;;12.17;10.13;;;;;;;9.09;100.00;100149.56;15278722;19;20176;-52
2022/02/14 14:18:18;;;;;;;11.23;9.60;;;;;;;8.97;100.00;100138.69;15272410;19;20145;-51
2022/02/14 14:23:22;;;;;;;11.53;10.10;;;;;;;8.89;100.00;100130.34;15243763;19;20283;-52
2022/02/14 14:28:27;;;;;;;11.57;9.80;;;;;;;8.79;100.00;100123.00;15267727;19;20149;-52
2022/02/14 14:33:32;;;;;;;12.53;9.90;;;;;;;8.71;100.00;100120.78;15276538;19;20175;-51
2022/02/14 14:38:41;;;;;;;14.13;11.30;;;;;;;8.60;100.00;100117.91;15272249;19;20200;-51
2022/02/14 14:43:46;;;;;;;14.43;10.60;;;;;;;8.51;100.00;100121.13;15251243;19;20533;-52
2022/02/14 14:48:50;;;;;;;13.40;10.03;;;;;;;8.39;100.00;100127.16;15256368;19;20156;-51
2022/02/14 14:53:55;;;;;;;13.03;10.20;;;;;;;8.25;100.00;100123.47;15271965;19;20517;-51
2022/02/14 14:58:59;;;;;;;13.40;10.80;;;;;;;8.09;100.00;100117.31;15270930;19;20475;-51
2022/02/14 15:04:05;;;;;;;14.00;9.63;;;;;;;7.91;100.00;100113.06;15260749;19;20143;-51
2022/02/14 15:09:10;;;;;;;12.90;9.23;;;;;;;7.72;100.00;100112.38;15237429;19;20188;-52
2022/02/14 15:14:15;;;;;;;10.37;9.17;;;;;;;7.46;100.00;100117.34;15270011;19;20172;-51
2022/02/14 15:19:19;;;;;;;11.43;9.90;;;;;;;7.20;100.00;100104.59;15267837;19;20152;-51
2022/02/14 15:24:24;;;;;;;12.73;9.47;;;;;;;6.91;100.00;100107.94;15272126;19;20155;-51
2022/02/14 15:29:29;;;;;;;10.43;9.33;;;;;;;6.68;100.00;100107.34;15234064;19;20198;-51
2022/02/14 15:34:34;;;;;;;12.87;9.00;;;;;;;6.41;100.00;100112.25;15248732;19;20217;-54
2022/02/14 15:39:38;;;;;;;13.33;9.77;;;;;;;6.08;100.00;100111.28;15263902;19;20171;-52
2022/02/14 15:44:43;;;;;;;15.13;10.57;;;;;;;5.80;100.00;100114.38;15263460;19;20149;-51
2022/02/14 15:49:48;;;;;;;11.40;9.47;;;;;;;5.71;100.00;100112.19;15245561;19;20156;-52
2022/02/14 15:54:52;;;;;;;12.43;10.10;;;;;;;5.58;100.00;100111.03;15237471;19;20160;-51
2022/02/14 15:59:57;;;;;;;13.10;10.77;;;;;;;5.47;100.00;100118.63;15278669;19;20146;-52
2022/02/14 16:05:02;;;;;;;16.00;11.70;;;;;;;5.31;100.00;100111.41;15279639;19;20140;-51
2022/02/14 16:10:07;;;;;;;20.23;13.57;;;;;;;5.09;100.00;100113.31;15276232;19;20168;-52
2022/02/14 16:15:18;;;;;;;20.83;13.57;;;;;;;4.88;100.00;100119.56;15247887;19;20232;-51
2022/02/14 16:20:22;;;;;;;22.43;13.90;;;;;;;4.72;100.00;100112.28;15270730;19;20569;-52
2022/02/14 16:25:29;;;;;;;18.50;13.33;;;;;;;4.56;100.00;100113.91;15277784;19;20458;-53
2022/02/14 16:30:33;;;;;;;16.40;12.17;;;;;;;4.40;100.00;100120.75;15278185;19;20494;-54
2022/02/14 16:35:38;;;;;;;19.87;13.13;;;;;;;4.21;100.00;100118.03;15248493;19;20838;-52
2022/02/14 16:40:42;;;;;;;17.93;12.60;;;;;;;4.12;100.00;100114.88;15252626;19;20228;-53
2022/02/14 16:45:52;;;;;;;17.53;12.63;;;;;;;4.03;100.00;100115.28;15278318;19;20144;-52
2022/02/14 16:51:01;;;;;;;20.23;14.10;;;;;;;3.93;100.00;100123.56;15276354;19;20482;-53
2022/02/14 16:56:05;;;;;;;20.90;13.73;;;;;;;3.87;100.00;100122.94;15262569;19;20277;-53
2022/02/14 17:01:10;;;;;;;18.30;13.93;;;;;;;3.77;100.00;100117.19;15245218;19;20145;-52
2022/02/14 17:06:14;;;;;;;19.17;14.17;;;;;;;3.66;100.00;100122.03;15268554;19;20526;-52
